sensor_id;sensor_type;location;lat;lon;timestamp;P1;durP1;ratioP1;P2;durP2;ratioP2
14754;SDS011;7469;50.906;6.952;2023-07-16T00:01:52;2.20;;;1.40;;
14754;SDS011;7469;50.906;6.952;2023-07-16T00:04:20;3.13;;;1.50;;
14754;SDS011;7469;50.906;6.952;2023-07-16T00:06:48;2.93;;;1.60;;
14754;SDS011;7469;50.906;6.952;2023-07-16T00:09:16;5.60;;;1.97;;
14754;SDS011;7469;50.906;6.952;2023-07-16T00:11:44;3.80;;;1.60;;
14754;SDS011;7469;50.906;6.952;2023-07-16T00:14:12;2.13;;;1.60;;
14754;SDS011;7469;50.906;6.952;2023-07-16T00:16:40;5.67;;;1.77;;
14754;SDS011;7469;50.906;6.952;2023-07-16T00:19:11;3.60;;;1.50;;
14754;SDS011;7469;50.906;6.952;2023-07-16T00:21:39;2.90;;;1.80;;
14754;SDS011;7469;50.906;6.952;2023-07-16T00:24:07;2.07;;;1.50;;
14754;SDS011;7469;50.906;6.952;2023-07-16T00:26:35;2.47;;;1.53;;
14754;SDS011;7469;50.906;6.952;2023-07-16T00:29:03;4.00;;;1.90;;
14754;SDS011;7469;50.906;6.952;2023-07-16T00:31:31;6.27;;;1.90;;
14754;SDS011;7469;50.906;6.952;2023-07-16T00:33:59;4.13;;;1.70;;
14754;SDS011;7469;50.906;6.952;2023-07-16T00:36:28;3.53;;;1.70;;
14754;SDS011;7469;50.906;6.952;2023-07-16T00:38:56;6.07;;;1.83;;
14754;SDS011;7469;50.906;6.952;2023-07-16T00:41:24;3.13;;;1.80;;
14754;SDS011;7469;50.906;6.952;2023-07-16T00:43:52;4.77;;;1.63;;
14754;SDS011;7469;50.906;6.952;2023-07-16T00:46:21;5.07;;;1.80;;
14754;SDS011;7469;50.906;6.952;2023-07-16T00:48:49;4.57;;;1.60;;
14754;SDS011;7469;50.906;6.952;2023-07-16T00:51:17;4.67;;;1.67;;
14754;SDS011;7469;50.906;6.952;2023-07-16T00:53:47;4.33;;;1.57;;
14754;SDS011;7469;50.906;6.952;2023-07-16T00:56:16;4.47;;;1.90;;
14754;SDS011;7469;50.906;6.952;2023-07-16T00:58:44;3.60;;;1.90;;
14754;SDS011;7469;50.906;6.952;2023-07-16T01:01:12;4.17;;;1.93;;
14754;SDS011;7469;50.906;6.952;2023-07-16T01:03:40;7.07;;;2.20;;
14754;SDS011;7469;50.906;6.952;2023-07-16T01:06:10;2.57;;;1.80;;
14754;SDS011;7469;50.906;6.952;2023-07-16T01:08:42;3.30;;;1.30;;
14754;SDS011;7469;50.906;6.952;2023-07-16T01:11:15;4.03;;;1.80;;
14754;SDS011;7469;50.906;6.952;2023-07-16T01:13:43;2.03;;;1.47;;
14754;SDS011;7469;50.906;6.952;2023-07-16T01:16:18;4.13;;;1.87;;
14754;SDS011;7469;50.906;6.952;2023-07-16T01:18:47;2.90;;;1.47;;
14754;SDS011;7469;50.906;6.952;2023-07-16T01:21:15;4.50;;;1.70;;
14754;SDS011;7469;50.906;6.952;2023-07-16T01:23:50;3.13;;;1.60;;
14754;SDS011;7469;50.906;6.952;2023-07-16T01:26:50;3.13;;;1.67;;
14754;SDS011;7469;50.906;6.952;2023-07-16T01:29:33;5.13;;;1.60;;
14754;SDS011;7469;50.906;6.952;2023-07-16T01:32:04;2.00;;;1.43;;
14754;SDS011;7469;50.906;6.952;2023-07-16T01:34:35;3.10;;;1.63;;
14754;SDS011;7469;50.906;6.952;2023-07-16T01:37:04;5.00;;;1.80;;
14754;SDS011;7469;50.906;6.952;2023-07-16T01:39:32;1.80;;;1.33;;
14754;SDS011;7469;50.906;6.952;2023-07-16T01:42:01;2.73;;;1.67;;
14754;SDS011;7469;50.906;6.952;2023-07-16T01:44:29;4.23;;;1.73;;
14754;SDS011;7469;50.906;6.952;2023-07-16T01:47:09;4.13;;;1.77;;
14754;SDS011;7469;50.906;6.952;2023-07-16T01:49:38;3.97;;;1.43;;
14754;SDS011;7469;50.906;6.952;2023-07-16T01:52:07;3.47;;;1.70;;
14754;SDS011;7469;50.906;6.952;2023-07-16T01:54:37;3.87;;;1.60;;
14754;SDS011;7469;50.906;6.952;2023-07-16T01:57:05;4.50;;;1.83;;
14754;SDS011;7469;50.906;6.952;2023-07-16T01:59:33;3.30;;;1.60;;
14754;SDS011;7469;50.906;6.952;2023-07-16T02:02:00;2.60;;;1.40;;
14754;SDS011;7469;50.906;6.952;2023-07-16T02:04:30;3.70;;;1.60;;
14754;SDS011;7469;50.906;6.952;2023-07-16T02:06:58;6.40;;;1.70;;
14754;SDS011;7469;50.906;6.952;2023-07-16T02:09:26;3.63;;;1.70;;
14754;SDS011;7469;50.906;6.952;2023-07-16T02:11:54;4.67;;;1.50;;
14754;SDS011;7469;50.906;6.952;2023-07-16T02:14:22;3.90;;;1.73;;
14754;SDS011;7469;50.906;6.952;2023-07-16T02:16:49;3.77;;;1.73;;
14754;SDS011;7469;50.906;6.952;2023-07-16T02:19:17;3.90;;;1.70;;
14754;SDS011;7469;50.906;6.952;2023-07-16T02:21:47;4.70;;;1.60;;
14754;SDS011;7469;50.906;6.952;2023-07-16T02:24:14;3.00;;;1.50;;
14754;SDS011;7469;50.906;6.952;2023-07-16T02:26:42;2.80;;;1.60;;
14754;SDS011;7469;50.906;6.952;2023-07-16T02:29:10;3.43;;;1.77;;
14754;SDS011;7469;50.906;6.952;2023-07-16T02:31:38;3.93;;;1.60;;
14754;SDS011;7469;50.906;6.952;2023-07-16T02:34:06;5.23;;;1.60;;
14754;SDS011;7469;50.906;6.952;2023-07-16T02:36:34;2.50;;;1.63;;
14754;SDS011;7469;50.906;6.952;2023-07-16T02:39:04;2.90;;;1.50;;
14754;SDS011;7469;50.906;6.952;2023-07-16T02:41:32;2.57;;;1.60;;
14754;SDS011;7469;50.906;6.952;2023-07-16T02:44:00;3.33;;;1.63;;
14754;SDS011;7469;50.906;6.952;2023-07-16T02:46:28;4.97;;;1.77;;
14754;SDS011;7469;50.906;6.952;2023-07-16T02:48:56;8.33;;;1.90;;
14754;SDS011;7469;50.906;6.952;2023-07-16T02:51:24;3.83;;;1.60;;
14754;SDS011;7469;50.906;6.952;2023-07-16T02:53:52;3.93;;;1.50;;
14754;SDS011;7469;50.906;6.952;2023-07-16T02:56:22;2.50;;;1.50;;
14754;SDS011;7469;50.906;6.952;2023-07-16T02:58:50;5.47;;;1.50;;
14754;SDS011;7469;50.906;6.952;2023-07-16T03:01:18;5.07;;;1.87;;
14754;SDS011;7469;50.906;6.952;2023-07-16T03:03:46;4.80;;;2.00;;
14754;SDS011;7469;50.906;6.952;2023-07-16T03:06:14;3.77;;;1.57;;
14754;SDS011;7469;50.906;6.952;2023-07-16T03:08:46;3.47;;;1.90;;
14754;SDS011;7469;50.906;6.952;2023-07-16T03:11:14;4.20;;;1.73;;
14754;SDS011;7469;50.906;6.952;2023-07-16T03:13:44;3.63;;;1.87;;
14754;SDS011;7469;50.906;6.952;2023-07-16T03:16:12;2.50;;;1.70;;
14754;SDS011;7469;50.906;6.952;2023-07-16T03:18:40;6.60;;;1.60;;
14754;SDS011;7469;50.906;6.952;2023-07-16T03:21:08;4.70;;;2.03;;
14754;SDS011;7469;50.906;6.952;2023-07-16T03:23:36;4.63;;;1.63;;
14754;SDS011;7469;50.906;6.952;2023-07-16T03:26:04;3.20;;;1.77;;
14754;SDS011;7469;50.906;6.952;2023-07-16T03:28:32;3.30;;;1.70;;
14754;SDS011;7469;50.906;6.952;2023-07-16T03:31:01;4.90;;;1.60;;
14754;SDS011;7469;50.906;6.952;2023-07-16T03:33:29;3.00;;;1.80;;
14754;SDS011;7469;50.906;6.952;2023-07-16T03:35:57;3.67;;;2.00;;
14754;SDS011;7469;50.906;6.952;2023-07-16T03:38:25;5.33;;;1.90;;
14754;SDS011;7469;50.906;6.952;2023-07-16T03:40:53;3.53;;;1.87;;
14754;SDS011;7469;50.906;6.952;2023-07-16T03:43:21;4.67;;;1.80;;
14754;SDS011;7469;50.906;6.952;2023-07-16T03:45:49;4.73;;;1.80;;
14754;SDS011;7469;50.906;6.952;2023-07-16T03:48:18;5.60;;;1.87;;
14754;SDS011;7469;50.906;6.952;2023-07-16T03:50:46;7.57;;;1.90;;
14754;SDS011;7469;50.906;6.952;2023-07-16T03:53:15;3.73;;;1.63;;
14754;SDS011;7469;50.906;6.952;2023-07-16T03:55:43;6.23;;;1.60;;
14754;SDS011;7469;50.906;6.952;2023-07-16T03:58:11;4.60;;;1.87;;
14754;SDS011;7469;50.906;6.952;2023-07-16T04:00:40;5.53;;;2.23;;
14754;SDS011;7469;50.906;6.952;2023-07-16T04:03:10;4.17;;;2.20;;
14754;SDS011;7469;50.906;6.952;2023-07-16T04:05:39;4.23;;;1.77;;
14754;SDS011;7469;50.906;6.952;2023-07-16T04:08:07;3.80;;;1.70;;
14754;SDS011;7469;50.906;6.952;2023-07-16T04:10:35;5.23;;;1.60;;
14754;SDS011;7469;50.906;6.952;2023-07-16T04:13:03;4.03;;;2.00;;
14754;SDS011;7469;50.906;6.952;2023-07-16T04:15:31;5.10;;;1.87;;
14754;SDS011;7469;50.906;6.952;2023-07-16T04:17:59;5.17;;;1.80;;
14754;SDS011;7469;50.906;6.952;2023-07-16T04:20:28;3.63;;;1.93;;
14754;SDS011;7469;50.906;6.952;2023-07-16T04:22:58;6.10;;;1.90;;
14754;SDS011;7469;50.906;6.952;2023-07-16T04:25:26;3.17;;;1.50;;
14754;SDS011;7469;50.906;6.952;2023-07-16T04:27:54;3.77;;;1.93;;
14754;SDS011;7469;50.906;6.952;2023-07-16T04:30:22;5.63;;;1.93;;
14754;SDS011;7469;50.906;6.952;2023-07-16T04:32:51;5.87;;;2.00;;
14754;SDS011;7469;50.906;6.952;2023-07-16T04:35:19;3.93;;;1.80;;
14754;SDS011;7469;50.906;6.952;2023-07-16T04:37:46;3.73;;;1.87;;
14754;SDS011;7469;50.906;6.952;2023-07-16T04:40:16;4.60;;;1.90;;
14754;SDS011;7469;50.906;6.952;2023-07-16T04:42:44;3.43;;;1.97;;
14754;SDS011;7469;50.906;6.952;2023-07-16T04:45:12;4.60;;;1.80;;
14754;SDS011;7469;50.906;6.952;2023-07-16T04:47:40;3.30;;;2.00;;
14754;SDS011;7469;50.906;6.952;2023-07-16T04:50:08;7.13;;;2.30;;
14754;SDS011;7469;50.906;6.952;2023-07-16T04:52:37;6.80;;;2.47;;
14754;SDS011;7469;50.906;6.952;2023-07-16T04:55:05;7.30;;;2.40;;
14754;SDS011;7469;50.906;6.952;2023-07-16T04:57:35;5.67;;;1.80;;
14754;SDS011;7469;50.906;6.952;2023-07-16T05:00:03;4.90;;;2.00;;
14754;SDS011;7469;50.906;6.952;2023-07-16T05:02:32;2.83;;;1.73;;
14754;SDS011;7469;50.906;6.952;2023-07-16T05:05:00;5.63;;;2.30;;
14754;SDS011;7469;50.906;6.952;2023-07-16T05:07:28;5.17;;;2.20;;
14754;SDS011;7469;50.906;6.952;2023-07-16T05:09:56;4.40;;;2.17;;
14754;SDS011;7469;50.906;6.952;2023-07-16T05:12:24;5.13;;;1.90;;
14754;SDS011;7469;50.906;6.952;2023-07-16T05:14:53;9.47;;;2.30;;
14754;SDS011;7469;50.906;6.952;2023-07-16T05:17:21;4.17;;;2.30;;
14754;SDS011;7469;50.906;6.952;2023-07-16T05:19:50;5.37;;;2.23;;
14754;SDS011;7469;50.906;6.952;2023-07-16T05:22:18;8.03;;;2.57;;
14754;SDS011;7469;50.906;6.952;2023-07-16T05:24:45;5.00;;;2.00;;
14754;SDS011;7469;50.906;6.952;2023-07-16T05:27:13;6.17;;;2.50;;
14754;SDS011;7469;50.906;6.952;2023-07-16T05:29:41;5.53;;;2.27;;
14754;SDS011;7469;50.906;6.952;2023-07-16T05:32:10;5.40;;;2.30;;
14754;SDS011;7469;50.906;6.952;2023-07-16T05:34:38;4.60;;;2.40;;
14754;SDS011;7469;50.906;6.952;2023-07-16T05:37:06;6.23;;;2.20;;
14754;SDS011;7469;50.906;6.952;2023-07-16T05:39:34;6.80;;;2.70;;
14754;SDS011;7469;50.906;6.952;2023-07-16T05:42:02;4.07;;;2.20;;
14754;SDS011;7469;50.906;6.952;2023-07-16T05:44:31;5.90;;;3.13;;
14754;SDS011;7469;50.906;6.952;2023-07-16T05:46:59;8.03;;;2.60;;
14754;SDS011;7469;50.906;6.952;2023-07-16T05:49:28;6.37;;;2.87;;
14754;SDS011;7469;50.906;6.952;2023-07-16T05:51:56;5.27;;;2.70;;
14754;SDS011;7469;50.906;6.952;2023-07-16T05:54:24;8.60;;;3.40;;
14754;SDS011;7469;50.906;6.952;2023-07-16T05:56:52;6.67;;;2.87;;
14754;SDS011;7469;50.906;6.952;2023-07-16T05:59:20;6.50;;;3.20;;
14754;SDS011;7469;50.906;6.952;2023-07-16T06:01:48;8.90;;;2.97;;
14754;SDS011;7469;50.906;6.952;2023-07-16T06:04:16;9.17;;;3.10;;
14754;SDS011;7469;50.906;6.952;2023-07-16T06:06:47;7.17;;;3.23;;
14754;SDS011;7469;50.906;6.952;2023-07-16T06:09:18;7.07;;;3.20;;
14754;SDS011;7469;50.906;6.952;2023-07-16T06:11:46;7.70;;;3.00;;
14754;SDS011;7469;50.906;6.952;2023-07-16T06:14:15;6.53;;;3.27;;
14754;SDS011;7469;50.906;6.952;2023-07-16T06:16:43;6.20;;;3.57;;
14754;SDS011;7469;50.906;6.952;2023-07-16T06:19:11;7.10;;;3.40;;
14754;SDS011;7469;50.906;6.952;2023-07-16T06:21:39;7.70;;;3.50;;
14754;SDS011;7469;50.906;6.952;2023-07-16T06:24:08;6.20;;;3.17;;
14754;SDS011;7469;50.906;6.952;2023-07-16T06:26:40;6.63;;;3.37;;
14754;SDS011;7469;50.906;6.952;2023-07-16T06:29:08;10.67;;;3.67;;
14754;SDS011;7469;50.906;6.952;2023-07-16T06:31:36;6.47;;;3.30;;
14754;SDS011;7469;50.906;6.952;2023-07-16T06:34:04;4.07;;;2.90;;
14754;SDS011;7469;50.906;6.952;2023-07-16T06:36:32;7.83;;;3.90;;
14754;SDS011;7469;50.906;6.952;2023-07-16T06:39:00;6.93;;;3.93;;
14754;SDS011;7469;50.906;6.952;2023-07-16T06:41:29;10.17;;;3.77;;
14754;SDS011;7469;50.906;6.952;2023-07-16T06:43:58;5.67;;;3.53;;
14754;SDS011;7469;50.906;6.952;2023-07-16T06:46:26;7.60;;;4.00;;
14754;SDS011;7469;50.906;6.952;2023-07-16T06:48:54;10.20;;;3.83;;
14754;SDS011;7469;50.906;6.952;2023-07-16T06:51:22;11.07;;;3.60;;
14754;SDS011;7469;50.906;6.952;2023-07-16T06:53:50;6.17;;;3.70;;
14754;SDS011;7469;50.906;6.952;2023-07-16T06:56:18;10.10;;;3.17;;
14754;SDS011;7469;50.906;6.952;2023-07-16T06:58:47;9.07;;;3.40;;
14754;SDS011;7469;50.906;6.952;2023-07-16T07:01:15;7.77;;;3.33;;
14754;SDS011;7469;50.906;6.952;2023-07-16T07:03:43;10.13;;;3.93;;
14754;SDS011;7469;50.906;6.952;2023-07-16T07:06:11;6.67;;;3.50;;
14754;SDS011;7469;50.906;6.952;2023-07-16T07:08:39;7.53;;;3.80;;
14754;SDS011;7469;50.906;6.952;2023-07-16T07:11:07;8.20;;;3.83;;
14754;SDS011;7469;50.906;6.952;2023-07-16T07:13:35;6.73;;;3.83;;
14754;SDS011;7469;50.906;6.952;2023-07-16T07:16:04;5.53;;;3.70;;
14754;SDS011;7469;50.906;6.952;2023-07-16T07:18:32;5.53;;;3.17;;
14754;SDS011;7469;50.906;6.952;2023-07-16T07:21:00;8.57;;;3.60;;
14754;SDS011;7469;50.906;6.952;2023-07-16T07:23:28;6.13;;;3.50;;
14754;SDS011;7469;50.906;6.952;2023-07-16T07:25:56;7.00;;;3.70;;
14754;SDS011;7469;50.906;6.952;2023-07-16T07:28:24;7.20;;;3.50;;
14754;SDS011;7469;50.906;6.952;2023-07-16T07:30:54;9.13;;;3.80;;
14754;SDS011;7469;50.906;6.952;2023-07-16T07:33:23;7.77;;;3.53;;
14754;SDS011;7469;50.906;6.952;2023-07-16T07:35:52;6.50;;;3.90;;
14754;SDS011;7469;50.906;6.952;2023-07-16T07:38:21;6.43;;;3.60;;
14754;SDS011;7469;50.906;6.952;2023-07-16T07:40:49;6.97;;;3.70;;
14754;SDS011;7469;50.906;6.952;2023-07-16T07:43:17;6.30;;;3.90;;
14754;SDS011;7469;50.906;6.952;2023-07-16T07:45:45;6.17;;;3.60;;
14754;SDS011;7469;50.906;6.952;2023-07-16T07:48:13;6.57;;;3.47;;
14754;SDS011;7469;50.906;6.952;2023-07-16T07:50:43;11.10;;;4.03;;
14754;SDS011;7469;50.906;6.952;2023-07-16T07:53:16;8.70;;;3.93;;
14754;SDS011;7469;50.906;6.952;2023-07-16T07:55:46;6.70;;;3.60;;
14754;SDS011;7469;50.906;6.952;2023-07-16T07:58:14;5.47;;;3.47;;
14754;SDS011;7469;50.906;6.952;2023-07-16T08:00:42;10.07;;;4.10;;
14754;SDS011;7469;50.906;6.952;2023-07-16T08:03:09;6.37;;;3.37;;
14754;SDS011;7469;50.906;6.952;2023-07-16T08:05:37;6.53;;;3.40;;
14754;SDS011;7469;50.906;6.952;2023-07-16T08:08:07;9.07;;;3.90;;
14754;SDS011;7469;50.906;6.952;2023-07-16T08:10:35;6.30;;;3.67;;
14754;SDS011;7469;50.906;6.952;2023-07-16T08:13:03;6.43;;;3.57;;
14754;SDS011;7469;50.906;6.952;2023-07-16T08:15:30;5.30;;;3.53;;
14754;SDS011;7469;50.906;6.952;2023-07-16T08:17:58;7.53;;;4.03;;
14754;SDS011;7469;50.906;6.952;2023-07-16T08:20:27;6.30;;;3.73;;
14754;SDS011;7469;50.906;6.952;2023-07-16T08:22:55;6.67;;;4.00;;
14754;SDS011;7469;50.906;6.952;2023-07-16T08:25:24;4.63;;;3.33;;
14754;SDS011;7469;50.906;6.952;2023-07-16T08:27:53;6.30;;;3.40;;
14754;SDS011;7469;50.906;6.952;2023-07-16T08:30:21;6.60;;;4.20;;
14754;SDS011;7469;50.906;6.952;2023-07-16T08:32:49;7.87;;;3.87;;
14754;SDS011;7469;50.906;6.952;2023-07-16T08:35:17;7.50;;;4.00;;
14754;SDS011;7469;50.906;6.952;2023-07-16T08:37:46;5.53;;;3.87;;
14754;SDS011;7469;50.906;6.952;2023-07-16T08:40:14;6.10;;;4.20;;
14754;SDS011;7469;50.906;6.952;2023-07-16T08:42:44;5.53;;;3.60;;
14754;SDS011;7469;50.906;6.952;2023-07-16T08:45:13;6.40;;;3.90;;
14754;SDS011;7469;50.906;6.952;2023-07-16T08:47:42;6.17;;;3.70;;
14754;SDS011;7469;50.906;6.952;2023-07-16T08:50:10;5.50;;;3.40;;
14754;SDS011;7469;50.906;6.952;2023-07-16T08:52:39;6.47;;;3.80;;
14754;SDS011;7469;50.906;6.952;2023-07-16T08:55:08;6.60;;;3.60;;
14754;SDS011;7469;50.906;6.952;2023-07-16T08:57:36;5.70;;;3.40;;
14754;SDS011;7469;50.906;6.952;2023-07-16T09:00:07;7.73;;;3.40;;
14754;SDS011;7469;50.906;6.952;2023-07-16T09:02:36;7.03;;;4.03;;
14754;SDS011;7469;50.906;6.952;2023-07-16T09:05:04;8.43;;;3.60;;
14754;SDS011;7469;50.906;6.952;2023-07-16T09:07:33;6.30;;;3.70;;
14754;SDS011;7469;50.906;6.952;2023-07-16T09:10:02;5.17;;;2.90;;
14754;SDS011;7469;50.906;6.952;2023-07-16T09:12:31;4.17;;;2.90;;
14754;SDS011;7469;50.906;6.952;2023-07-16T09:14:59;4.83;;;2.80;;
14754;SDS011;7469;50.906;6.952;2023-07-16T09:17:28;4.60;;;2.63;;
14754;SDS011;7469;50.906;6.952;2023-07-16T09:19:56;7.97;;;3.07;;
14754;SDS011;7469;50.906;6.952;2023-07-16T09:22:24;5.63;;;2.90;;
14754;SDS011;7469;50.906;6.952;2023-07-16T09:24:52;4.30;;;2.90;;
14754;SDS011;7469;50.906;6.952;2023-07-16T09:27:20;5.03;;;2.80;;
14754;SDS011;7469;50.906;6.952;2023-07-16T09:29:48;5.23;;;2.90;;
14754;SDS011;7469;50.906;6.952;2023-07-16T09:32:17;3.57;;;2.80;;
14754;SDS011;7469;50.906;6.952;2023-07-16T09:34:48;4.47;;;2.90;;
14754;SDS011;7469;50.906;6.952;2023-07-16T09:37:17;5.30;;;3.20;;
14754;SDS011;7469;50.906;6.952;2023-07-16T09:39:46;4.30;;;2.93;;
14754;SDS011;7469;50.906;6.952;2023-07-16T09:42:14;3.77;;;2.90;;
14754;SDS011;7469;50.906;6.952;2023-07-16T09:44:46;10.53;;;2.80;;
14754;SDS011;7469;50.906;6.952;2023-07-16T09:47:14;4.13;;;2.63;;
14754;SDS011;7469;50.906;6.952;2023-07-16T09:49:42;4.80;;;2.40;;
14754;SDS011;7469;50.906;6.952;2023-07-16T09:52:13;4.77;;;2.67;;
14754;SDS011;7469;50.906;6.952;2023-07-16T09:54:41;2.57;;;2.30;;
14754;SDS011;7469;50.906;6.952;2023-07-16T09:57:11;4.03;;;2.70;;
14754;SDS011;7469;50.906;6.952;2023-07-16T09:59:43;4.13;;;2.80;;
14754;SDS011;7469;50.906;6.952;2023-07-16T10:02:12;5.63;;;2.90;;
14754;SDS011;7469;50.906;6.952;2023-07-16T10:04:41;5.23;;;2.87;;
14754;SDS011;7469;50.906;6.952;2023-07-16T10:07:19;3.50;;;2.60;;
14754;SDS011;7469;50.906;6.952;2023-07-16T10:09:52;4.10;;;2.83;;
14754;SDS011;7469;50.906;6.952;2023-07-16T10:12:23;3.93;;;2.63;;
14754;SDS011;7469;50.906;6.952;2023-07-16T10:14:52;4.53;;;2.90;;
14754;SDS011;7469;50.906;6.952;2023-07-16T10:17:23;5.37;;;2.80;;
14754;SDS011;7469;50.906;6.952;2023-07-16T10:19:55;4.27;;;3.00;;
14754;SDS011;7469;50.906;6.952;2023-07-16T10:22:32;2.97;;;2.67;;
14754;SDS011;7469;50.906;6.952;2023-07-16T10:25:08;4.53;;;2.80;;
14754;SDS011;7469;50.906;6.952;2023-07-16T10:27:37;3.77;;;2.80;;
14754;SDS011;7469;50.906;6.952;2023-07-16T10:30:05;4.53;;;2.73;;
14754;SDS011;7469;50.906;6.952;2023-07-16T10:32:33;5.33;;;2.70;;
14754;SDS011;7469;50.906;6.952;2023-07-16T10:35:02;4.33;;;2.73;;
14754;SDS011;7469;50.906;6.952;2023-07-16T10:37:32;5.43;;;2.90;;
14754;SDS011;7469;50.906;6.952;2023-07-16T10:40:01;5.37;;;2.83;;
14754;SDS011;7469;50.906;6.952;2023-07-16T10:42:31;5.53;;;2.70;;
14754;SDS011;7469;50.906;6.952;2023-07-16T10:45:00;4.23;;;2.50;;
14754;SDS011;7469;50.906;6.952;2023-07-16T10:47:30;5.53;;;2.90;;
14754;SDS011;7469;50.906;6.952;2023-07-16T10:49:59;3.63;;;2.80;;
14754;SDS011;7469;50.906;6.952;2023-07-16T10:52:30;4.07;;;2.77;;
14754;SDS011;7469;50.906;6.952;2023-07-16T10:54:59;5.07;;;2.57;;
14754;SDS011;7469;50.906;6.952;2023-07-16T10:57:28;3.97;;;2.53;;
14754;SDS011;7469;50.906;6.952;2023-07-16T10:59:56;4.57;;;2.60;;
14754;SDS011;7469;50.906;6.952;2023-07-16T11:02:26;4.00;;;2.90;;
14754;SDS011;7469;50.906;6.952;2023-07-16T11:04:54;4.53;;;2.40;;
14754;SDS011;7469;50.906;6.952;2023-07-16T11:07:24;3.37;;;2.30;;
14754;SDS011;7469;50.906;6.952;2023-07-16T11:09:54;3.83;;;2.63;;
14754;SDS011;7469;50.906;6.952;2023-07-16T11:12:23;5.93;;;2.67;;
14754;SDS011;7469;50.906;6.952;2023-07-16T11:14:52;3.93;;;2.53;;
14754;SDS011;7469;50.906;6.952;2023-07-16T11:17:21;6.47;;;3.03;;
14754;SDS011;7469;50.906;6.952;2023-07-16T11:19:51;5.33;;;3.13;;
14754;SDS011;7469;50.906;6.952;2023-07-16T11:22:24;6.17;;;2.80;;
14754;SDS011;7469;50.906;6.952;2023-07-16T11:24:53;3.10;;;2.57;;
14754;SDS011;7469;50.906;6.952;2023-07-16T11:27:22;4.13;;;2.90;;
14754;SDS011;7469;50.906;6.952;2023-07-16T11:29:52;3.33;;;2.27;;
14754;SDS011;7469;50.906;6.952;2023-07-16T11:32:28;5.23;;;2.87;;
14754;SDS011;7469;50.906;6.952;2023-07-16T11:34:57;3.57;;;2.73;;
14754;SDS011;7469;50.906;6.952;2023-07-16T11:37:26;3.90;;;2.77;;
14754;SDS011;7469;50.906;6.952;2023-07-16T11:39:56;2.83;;;2.43;;
14754;SDS011;7469;50.906;6.952;2023-07-16T11:42:30;4.33;;;2.70;;
14754;SDS011;7469;50.906;6.952;2023-07-16T11:44:58;4.97;;;2.70;;
14754;SDS011;7469;50.906;6.952;2023-07-16T11:47:27;3.90;;;2.60;;
14754;SDS011;7469;50.906;6.952;2023-07-16T11:49:56;4.40;;;3.00;;
14754;SDS011;7469;50.906;6.952;2023-07-16T11:52:24;5.43;;;2.70;;
14754;SDS011;7469;50.906;6.952;2023-07-16T11:54:54;3.67;;;3.23;;
14754;SDS011;7469;50.906;6.952;2023-07-16T11:57:26;3.37;;;2.63;;
14754;SDS011;7469;50.906;6.952;2023-07-16T11:59:55;4.77;;;2.80;;
14754;SDS011;7469;50.906;6.952;2023-07-16T12:02:24;5.50;;;2.90;;
14754;SDS011;7469;50.906;6.952;2023-07-16T12:04:53;5.03;;;3.20;;
14754;SDS011;7469;50.906;6.952;2023-07-16T12:07:30;3.67;;;2.73;;
14754;SDS011;7469;50.906;6.952;2023-07-16T12:10:00;6.63;;;2.70;;
14754;SDS011;7469;50.906;6.952;2023-07-16T12:12:29;6.40;;;2.50;;
14754;SDS011;7469;50.906;6.952;2023-07-16T12:14:59;6.07;;;3.10;;
14754;SDS011;7469;50.906;6.952;2023-07-16T12:17:27;5.13;;;2.87;;
14754;SDS011;7469;50.906;6.952;2023-07-16T12:19:55;3.03;;;2.23;;
14754;SDS011;7469;50.906;6.952;2023-07-16T12:22:23;6.00;;;3.03;;
14754;SDS011;7469;50.906;6.952;2023-07-16T12:24:51;5.03;;;2.90;;
14754;SDS011;7469;50.906;6.952;2023-07-16T12:27:21;5.67;;;2.60;;
14754;SDS011;7469;50.906;6.952;2023-07-16T12:29:49;2.80;;;2.40;;
14754;SDS011;7469;50.906;6.952;2023-07-16T12:32:20;3.23;;;2.60;;
14754;SDS011;7469;50.906;6.952;2023-07-16T12:34:47;4.63;;;2.70;;
14754;SDS011;7469;50.906;6.952;2023-07-16T12:37:15;3.13;;;2.47;;
14754;SDS011;7469;50.906;6.952;2023-07-16T12:39:44;4.53;;;3.10;;
14754;SDS011;7469;50.906;6.952;2023-07-16T12:42:12;3.90;;;2.77;;
14754;SDS011;7469;50.906;6.952;2023-07-16T12:44:40;8.17;;;2.83;;
14754;SDS011;7469;50.906;6.952;2023-07-16T12:47:07;5.90;;;2.93;;
14754;SDS011;7469;50.906;6.952;2023-07-16T12:49:37;5.53;;;2.87;;
14754;SDS011;7469;50.906;6.952;2023-07-16T12:52:05;4.97;;;3.20;;
14754;SDS011;7469;50.906;6.952;2023-07-16T12:54:34;5.47;;;2.70;;
14754;SDS011;7469;50.906;6.952;2023-07-16T12:57:01;4.90;;;3.00;;
14754;SDS011;7469;50.906;6.952;2023-07-16T12:59:30;4.13;;;3.13;;
14754;SDS011;7469;50.906;6.952;2023-07-16T13:01:58;4.63;;;3.43;;
14754;SDS011;7469;50.906;6.952;2023-07-16T13:04:26;4.80;;;3.20;;
14754;SDS011;7469;50.906;6.952;2023-07-16T13:06:55;5.00;;;3.30;;
14754;SDS011;7469;50.906;6.952;2023-07-16T13:09:23;4.67;;;3.00;;
14754;SDS011;7469;50.906;6.952;2023-07-16T13:11:51;5.60;;;2.90;;
14754;SDS011;7469;50.906;6.952;2023-07-16T13:14:19;6.30;;;3.03;;
14754;SDS011;7469;50.906;6.952;2023-07-16T13:16:47;5.03;;;2.90;;
14754;SDS011;7469;50.906;6.952;2023-07-16T13:19:15;5.80;;;2.93;;
14754;SDS011;7469;50.906;6.952;2023-07-16T13:21:43;4.50;;;2.70;;
14754;SDS011;7469;50.906;6.952;2023-07-16T13:24:12;6.60;;;3.23;;
14754;SDS011;7469;50.906;6.952;2023-07-16T13:26:40;5.63;;;3.10;;
14754;SDS011;7469;50.906;6.952;2023-07-16T13:29:11;5.57;;;3.10;;
14754;SDS011;7469;50.906;6.952;2023-07-16T13:31:39;6.17;;;3.10;;
14754;SDS011;7469;50.906;6.952;2023-07-16T13:34:06;4.23;;;3.00;;
14754;SDS011;7469;50.906;6.952;2023-07-16T13:36:34;4.90;;;2.80;;
14754;SDS011;7469;50.906;6.952;2023-07-16T13:39:02;7.87;;;3.17;;
14754;SDS011;7469;50.906;6.952;2023-07-16T13:41:32;6.67;;;3.30;;
14754;SDS011;7469;50.906;6.952;2023-07-16T13:44:01;4.00;;;2.93;;
14754;SDS011;7469;50.906;6.952;2023-07-16T13:46:30;5.47;;;3.00;;
14754;SDS011;7469;50.906;6.952;2023-07-16T13:48:58;6.50;;;3.27;;
14754;SDS011;7469;50.906;6.952;2023-07-16T13:51:26;6.00;;;3.20;;
14754;SDS011;7469;50.906;6.952;2023-07-16T13:53:54;5.40;;;2.70;;
14754;SDS011;7469;50.906;6.952;2023-07-16T13:56:22;6.83;;;3.33;;
14754;SDS011;7469;50.906;6.952;2023-07-16T13:58:51;3.27;;;2.93;;
14754;SDS011;7469;50.906;6.952;2023-07-16T14:01:21;6.53;;;3.03;;
14754;SDS011;7469;50.906;6.952;2023-07-16T14:03:49;4.67;;;2.97;;
14754;SDS011;7469;50.906;6.952;2023-07-16T14:06:17;4.73;;;2.70;;
14754;SDS011;7469;50.906;6.952;2023-07-16T14:08:45;4.77;;;2.87;;
14754;SDS011;7469;50.906;6.952;2023-07-16T14:11:14;6.80;;;3.00;;
14754;SDS011;7469;50.906;6.952;2023-07-16T14:13:44;4.63;;;2.83;;
14754;SDS011;7469;50.906;6.952;2023-07-16T14:16:15;6.03;;;3.10;;
14754;SDS011;7469;50.906;6.952;2023-07-16T14:18:44;4.20;;;2.80;;
14754;SDS011;7469;50.906;6.952;2023-07-16T14:21:11;3.23;;;2.60;;
14754;SDS011;7469;50.906;6.952;2023-07-16T14:23:40;5.10;;;3.73;;
14754;SDS011;7469;50.906;6.952;2023-07-16T14:26:07;4.33;;;3.00;;
14754;SDS011;7469;50.906;6.952;2023-07-16T14:28:35;4.30;;;2.60;;
14754;SDS011;7469;50.906;6.952;2023-07-16T14:31:03;8.43;;;2.90;;
14754;SDS011;7469;50.906;6.952;2023-07-16T14:33:33;5.50;;;2.93;;
14754;SDS011;7469;50.906;6.952;2023-07-16T14:36:01;3.70;;;2.70;;
14754;SDS011;7469;50.906;6.952;2023-07-16T14:38:29;5.53;;;2.90;;
14754;SDS011;7469;50.906;6.952;2023-07-16T14:40:57;5.77;;;2.63;;
14754;SDS011;7469;50.906;6.952;2023-07-16T14:43:25;4.97;;;2.23;;
14754;SDS011;7469;50.906;6.952;2023-07-16T14:45:53;3.33;;;2.37;;
14754;SDS011;7469;50.906;6.952;2023-07-16T14:48:21;5.83;;;2.50;;
14754;SDS011;7469;50.906;6.952;2023-07-16T14:50:50;4.33;;;2.67;;
14754;SDS011;7469;50.906;6.952;2023-07-16T14:53:18;3.93;;;2.70;;
14754;SDS011;7469;50.906;6.952;2023-07-16T14:55:47;4.70;;;2.60;;
14754;SDS011;7469;50.906;6.952;2023-07-16T14:58:15;6.00;;;2.73;;
14754;SDS011;7469;50.906;6.952;2023-07-16T15:00:45;4.67;;;2.63;;
14754;SDS011;7469;50.906;6.952;2023-07-16T15:03:13;4.90;;;2.97;;
14754;SDS011;7469;50.906;6.952;2023-07-16T15:05:41;4.67;;;2.70;;
14754;SDS011;7469;50.906;6.952;2023-07-16T15:08:10;6.77;;;3.00;;
14754;SDS011;7469;50.906;6.952;2023-07-16T15:10:38;3.83;;;2.63;;